Sichem Hawk — 9HSE9 — position and weather

sailwx.info

Track history (hours):
 
Tides and Currents Weather Stations Pressure Air Temp Water Temp Dewpoint Dewpoint Depression Visibility Wind Speed Wind Dir Waves Ship Positions

Sichem Hawk

Last reported at 2015-Jul-02 11:24 UTC. Time now 2015-Jul-04 11:46 UTC.
Position N 44°50' E 036°37'.

Length 170 m; draft 6.2 m.

Type: Ship. MMSI: 249445000.

Date/timePositionNaut miles runAvg speedWind from/ knotsBaromVisibWave heightAir tempDewpointWater temp
2015-Jul-02 11:24N 44°50' E 036°37'0 0.0
2015-Jul-02 07:33N 44°50' E 036°37'0 0.0
2015-Jul-02 06:33N 44°50' E 036°37'0 0.0
2015-Jul-01 19:33N 44°50' E 036°37'0 0.0
2015-Jul-01 18:33N 44°50' E 036°37'0 0.0
2015-Jul-01 17:33N 44°50' E 036°37'0 0.0
2015-Jul-01 16:33N 44°50' E 036°37'0 0.0
2015-Jul-01 15:33N 44°50' E 036°37'0 0.0
2015-Jul-01 14:33N 44°50' E 036°37'0 0.0
2015-Jul-01 13:33N 44°50' E 036°37'0 0.0
2015-Jul-01 12:33N 44°50' E 036°37'72 5.1
2015-Jun-30 22:33N 44°11' E 035°13'1413.7
2015-Jun-30 21:33N 44°03' E 034°58'1713.3
2015-Jun-30 20:15N 43°54' E 034°37'1012.9
2015-Jun-30 19:27N 43°48' E 034°25'29213.7
2015-Jun-29 22:07N 41°02' E 029°00'5 8.4
2015-Jun-29 21:33N 40°57' E 028°60'10 9.9
2015-Jun-29 20:32N 40°47' E 028°60'0 0.4
2015-Jun-29 19:33N 40°47' E 029°00'0 0.4
2015-Jun-29 18:33N 40°47' E 029°00'0 0.4
2015-Jun-29 17:33N 40°48' E 029°00'1 0.6
2015-Jun-29 16:33N 40°48' E 029°01'9 9.2
2015-Jun-29 15:33N 40°45' E 029°13'7 7.0
2015-Jun-29 14:33N 40°43' E 029°21'1 1.0
2015-Jun-29 13:31N 40°42' E 029°20'5 5.3
2015-Jun-29 12:33N 40°43' E 029°26'  
2015-Jun-23 23:29N 40°43' E 029°28'0 0.3
2015-Jun-23 22:33N 40°43' E 029°28'5 4.7
2015-Jun-23 21:29N 40°42' E 029°21'0 0.0
2015-Jun-23 20:29N 40°42' E 029°21'  
Track history (hours):
 
Tides and Currents Weather Stations Pressure Air Temp Water Temp Dewpoint Dewpoint Depression Visibility Wind Speed Wind Dir Waves Ship Positions

Sichem Hawk

Last reported at 2015-Jul-02 11:24 UTC. Time now 2015-Jul-04 11:46 UTC.
Position N 44°50' E 036°37'.

Length 170 m; draft 6.2 m.

Type: Ship. MMSI: 249445000.

Date/timePositionNaut miles runAvg speedWind from/ knotsBaromVisibWave heightAir tempDewpointWater temp
2015-Jul-02 11:24N 44°50' E 036°37'0 0.0
2015-Jul-02 07:33N 44°50' E 036°37'0 0.0
2015-Jul-02 06:33N 44°50' E 036°37'0 0.0
2015-Jul-01 19:33N 44°50' E 036°37'0 0.0
2015-Jul-01 18:33N 44°50' E 036°37'0 0.0
2015-Jul-01 17:33N 44°50' E 036°37'0 0.0
2015-Jul-01 16:33N 44°50' E 036°37'0 0.0
2015-Jul-01 15:33N 44°50' E 036°37'0 0.0
2015-Jul-01 14:33N 44°50' E 036°37'0 0.0
2015-Jul-01 13:33N 44°50' E 036°37'0 0.0
2015-Jul-01 12:33N 44°50' E 036°37'72 5.1
2015-Jun-30 22:33N 44°11' E 035°13'1413.7
2015-Jun-30 21:33N 44°03' E 034°58'1713.3
2015-Jun-30 20:15N 43°54' E 034°37'1012.9
2015-Jun-30 19:27N 43°48' E 034°25'29213.7
2015-Jun-29 22:07N 41°02' E 029°00'5 8.4
2015-Jun-29 21:33N 40°57' E 028°60'10 9.9
2015-Jun-29 20:32N 40°47' E 028°60'0 0.4
2015-Jun-29 19:33N 40°47' E 029°00'0 0.4
2015-Jun-29 18:33N 40°47' E 029°00'0 0.4
2015-Jun-29 17:33N 40°48' E 029°00'1 0.6
2015-Jun-29 16:33N 40°48' E 029°01'9 9.2
2015-Jun-29 15:33N 40°45' E 029°13'7 7.0
2015-Jun-29 14:33N 40°43' E 029°21'1 1.0
2015-Jun-29 13:31N 40°42' E 029°20'5 5.3
2015-Jun-29 12:33N 40°43' E 029°26'  
2015-Jun-23 23:29N 40°43' E 029°28'0 0.3
2015-Jun-23 22:33N 40°43' E 029°28'5 4.7
2015-Jun-23 21:29N 40°42' E 029°21'0 0.0
2015-Jun-23 20:29N 40°42' E 029°21'  

Dump ship's entire track history